메인 페이지
METAR-TAF:

METAR-TAF

공항 :

멕시코시티 국제공항

멕시코시티, 멕시코

위도: 19-26N, 경도: 099-06W, 고도: 2238m

현재 날씨관측

예보는 1 시간 16분 전, 03:41시(UTC)에 발표되었습니다.
서북서6kt
온도 18°C
습도 68%
기압 1025 hPa
시정: 16.1km
고도 2000ft 상공 구름 보통
고도 8000ft 상공 구름 많음
고도 20000ft 상공 구름 많음

METAR: MMMX 160341Z 30006KT 10SM SCT020 BKN080 BKN200 18/12 A3027 NOSIG RMK 8/538

시각: 23:57 (04:57 UTC)

예보

예보는 5 시간 30분 전, 23:27시(UTC)에 발표되었습니다.
예보 대상 시간: 16일 00시부터 17일 06시까지 (UTC)
북북서10kt
시정: 10km
고도 2000ft 상공 구름 보통, 적란운.
고도 8000ft 상공 구름 많음
시계 내, 비
일시적
16일 00시부터 16일 04시까지 (UTC)
시정: 8.0km
고도 2000ft 상공 구름 많음, 적란운.
고도 8000ft 상공 구름 많음
뇌우, 비
16일 0600시부터 (UTC)
북동5kt
시정: 9.7km
고도 2000ft 상공 구름 많음
고도 8000ft 상공 구름 많음
약한비
16일 1000시부터 (UTC)
동남동5kt
시정: 10km
고도 2000ft 상공 구름 보통
고도 8000ft 상공 구름 많음
고도 20000ft 상공 흐림
16일 1600시부터 (UTC)
동남동10kt
시정: 10km
고도 2000ft 상공 구름 많음
고도 8000ft 상공 구름 많음
일시적
16일 21시부터 17일 01시까지 (UTC)
시정: 8.0km
약한비

TAF: MMMX 152327Z 1600/1706 34010KT P6SM VC RA SCT020CB BKN080 TX22/1621Z TN13/1613Z TEMPO 1600/1604 5SM TSRA BKN020CB BKN080 FM160600 04005KT 6SM -RA BKN020 BKN080 FM161000 12005KT P6SM SCT020 BKN080 OVC200 FM161600 12010KT P6SM BKN020 BKN080 TEMPO 1621/1701 5SM -RA

4,000개 이상의 공항 관측 자료 및 예보 (METAR 및 TAF 보고).

지도상에서 검색 가능한 기상관측소가 노란 점과 빨간 점으로 표시되어 있습니다.

기상관측소 명을 보려면 표시 위로 마우스를 이동하세요.

날씨 관측과 예보를 보려면 클릭하세요.

지도 변경 : 확대하려면 엑스 표시가 있는 녹색 버튼, 축소하려면 빼기 표시가 있는 녹색 버튼, 다음 페이지의 지도를 보려면 녹색 화살표를 클릭하세요.


METAR-TAF: